Main page
METAR-TAF:

METAR-TAF

Airports :

Gibraltar International Airport

Gibraltar, Gibraltar

latitude: 36-09N, longitude: 005-21W, elevation: 5 m

Current weather observation

The report was made 59 minutes ago, at 18:50 UTC
Wind 10 kt from the West
Temperature 15°C
Humidity 72%
Pressure 1026 hPa
Visibility 10 km or more
no clouds below 1500 m and no cumulonimbus

METAR: LXGB 271850Z 27010KT CAVOK 15/10 Q1026 RMK BLU

Time: 20:49 (19:49 UTC)

Forecast

The report was made 3 hours and 29 minutes ago, at 16:20 UTC
Forecast valid from 27 at 18 UTC to 27 at 23 UTC
Wind 10 kt from the West
Visibility 10 km or more
Few clouds at a height of 4500 ft

TAF: LXGB 271620Z 2718/2723 26010KT 9999 FEW045

Weather observations and forecasts of more than 4000 airports (METAR and TAF reports).

The available stations are represented by yellow and red dots on the map.

Hover mouse over dot to see the name of the station.

Then click to see weather observations and forecasts.

To change the map : click on the green buttons with a black cross to zoom in, on the green button with a dash to zoom out, or on the green arrows for adjacent maps.


METAR-TAF: